ADDS METAR Data INFO
IDs: Format: Raw Decoded Include TAF

Data at: 1543 UTC 24 Sep 2017

KMNZ 241535Z AUTO 17009G17KT 10SM SCT019 SCT024 27/20 A2995 RMK AO2 T02720204
KMNZ 241515Z AUTO 17012KT 10SM SCT017 27/20 A2995 RMK AO2 T02660203
KMNZ 241455Z AUTO 16012G18KT 10SM SCT012 BKN017 26/21 A2995 RMK AO2 T02550213
KMNZ 241435Z AUTO 18008KT 10SM OVC010 25/22 A2995 RMK AO2 T02460221
KMNZ 241415Z AUTO 16011G15KT 10SM BKN008 24/22 A2994 RMK AO2 T02430222
KMNZ 241355Z AUTO 16009KT 10SM BKN006 BKN013 24/23 A2994 RMK AO2 T02360229
KMNZ 241335Z AUTO 15008KT 10SM OVC006 23/23 A2994 RMK AO2 T02280228
KMNZ 241315Z AUTO 16008KT 7SM OVC006 23/23 A2993 RMK AO2 T02250225
KMNZ 241255Z AUTO 16008KT 7SM OVC006 22/22 A2993 RMK AO2 T02230223
KMNZ 241235Z AUTO 17007KT 7SM OVC008 22/22 A2992 RMK AO2 T02210221
KMNZ 241215Z AUTO 16007KT 7SM BKN008 OVC011 22/22 A2992 RMK AO2 T02200220
KMNZ 241155Z AUTO 16007KT 7SM BKN008 OVC011 22/22 A2991 RMK AO2 T02170217 10241 20215
KMNZ 241140Z AUTO 16007KT 7SM BKN008 BKN013 BKN018 22/22 A2991 RMK AO2 T02150215
KMNZ 241115Z AUTO 00000KT 10SM BKN012 BKN018 22/22 A2991 RMK AO2 T02150215
KMNZ 241055Z AUTO 16006KT 10SM OVC012 22/22 A2991 RMK AO2 T02170217
KMNZ 241035Z AUTO 16007KT 10SM OVC010 22/22 A2991 RMK AO2 T02190219
KMNZ 241015Z AUTO 16006KT 10SM OVC010 22/22 A2991 RMK AO2 T02180218
KMNZ 240955Z AUTO 17005KT 10SM BKN010 22/22 A2991 RMK AO2 T02150215
KMNZ 240935Z AUTO 16007KT 10SM CLR 22/22 A2990 RMK AO2 T02190216
KMNZ 240915Z AUTO 15006KT 10SM CLR 22/22 A2990 RMK AO2 T02200215
KMNZ 240855Z AUTO 16007KT 10SM CLR 22/21 A2990 RMK AO2 T02240212
KMNZ 240835Z AUTO 17007KT 10SM CLR 23/21 A2991 RMK AO2 T02250205
KMNZ 240815Z AUTO 16008KT 10SM CLR 23/20 A2991 RMK AO2 T02270201
KMNZ 240755Z AUTO 16007KT 10SM CLR 23/20 A2992 RMK AO2 T02280195
KMNZ 240735Z AUTO 15007KT 10SM CLR 23/19 A2992 RMK AO2 T02300192
KMNZ 240715Z AUTO 16006KT 10SM CLR 24/19 A2992 RMK AO2 T02350192
KMNZ 240655Z AUTO 16008KT 10SM CLR 23/19 A2992 RMK AO2 T02330192
KMNZ 240635Z AUTO 17007KT 10SM CLR 24/19 A2992 RMK AO2 T02370190
KMNZ 240615Z AUTO 16009KT 10SM CLR 24/19 A2991 RMK AO2 T02410190
KMNZ 240555Z AUTO 16007KT 10SM CLR 24/19 A2991 RMK AO2 T02400190 10305 20240 403340212
KMNZ 240535Z AUTO 16007KT 10SM CLR 24/19 A2991 RMK AO2 T02430190
KMNZ 240515Z AUTO 16008KT 10SM CLR 25/19 A2991 RMK AO2 T02450186
KMNZ 240455Z AUTO 15008KT 10SM CLR 25/18 A2990 RMK AO2 T02460183
KMNZ 240435Z AUTO 15009KT 10SM CLR 25/18 A2990 RMK AO2 T02490181
KMNZ 240415Z AUTO 14009KT 10SM CLR 25/18 A2991 RMK AO2 T02520180
KMNZ 240355Z AUTO 14008KT 10SM CLR 26/18 A2991 RMK AO2 T02550180
KMNZ 240335Z AUTO 15009KT 10SM CLR 26/18 A2992 RMK AO2 T02600178
KMNZ 240315Z AUTO 15010KT 10SM CLR 26/18 A2991 RMK AO2 T02630177
KMNZ 240255Z AUTO 15010KT 10SM CLR 27/18 A2990 RMK AO2 T02660176
KMNZ 240235Z AUTO 14009KT 10SM CLR 27/17 A2990 RMK AO2 T02700174
KMNZ 240215Z AUTO 14010KT 10SM CLR 27/17 A2989 RMK AO2 T02730171
KMNZ 240155Z AUTO 14008KT 10SM CLR 27/17 A2989 RMK AO2 T02720170
KMNZ 240135Z AUTO 14007KT 10SM CLR 27/17 A2990 RMK AO2 T02720167
KMNZ 240115Z AUTO 14007KT 10SM CLR 28/17 A2990 RMK AO2 T02790166
KMNZ 240055Z AUTO 14008KT 10SM CLR 29/17 A2989 RMK AO2 T02850165
KMNZ 240035Z AUTO 15011KT 10SM CLR 29/17 A2988 RMK AO2 T02920165
KMNZ 240015Z AUTO 14009G15KT 10SM CLR 30/16 A2988 RMK AO2 T02980162
KMNZ 232355Z AUTO 15012G16KT 10SM CLR 31/17 A2988 RMK AO2 T03050166 10334 20305
KMNZ 232335Z AUTO 14014G18KT 10SM CLR 31/16 A2988 RMK AO2 T03100164
KMNZ 232315Z AUTO 13013G19KT 10SM SCT055 32/16 A2987 RMK AO2 T03150161
KMNZ 232255Z AUTO 15015G19KT 10SM SCT055 32/16 A2987 RMK AO2 T03190160
KMNZ 232235Z AUTO 14010KT 10SM SCT060 32/16 A2988 RMK AO2 T03200161
KMNZ 232215Z AUTO 14015G20KT 10SM SCT060 33/16 A2988 RMK AO2 T03280157
KMNZ 232155Z AUTO 14014G20KT 10SM SCT060 33/16 A2989 RMK AO2 T03300158
KMNZ 232135Z AUTO 14014G18KT 10SM CLR 33/15 A2989 RMK AO2 T03280153
KMNZ 232115Z AUTO 15015G20KT 10SM SCT050 33/16 A2990 RMK AO2 T03280157
KMNZ 232055Z AUTO 15010G18KT 10SM SCT050 33/16 A2990 RMK AO2 T03260162
KMNZ 232035Z AUTO 15011G16KT 10SM SCT050 33/16 A2991 RMK AO2 T03280159
KMNZ 232015Z AUTO 16014G19KT 10SM BKN050 33/16 A2992 RMK AO2 T03330164
KMNZ 231955Z AUTO 13012G17KT 10SM BKN050 33/16 A2992 RMK AO2 T03330164
KMNZ 231935Z AUTO 13013G20KT 10SM BKN049 32/17 A2993 RMK AO2 T03210166
KMNZ 231915Z AUTO 15008KT 10SM BKN049 32/16 A2994 RMK AO2 T03160162
KMNZ 231855Z AUTO 16013G17KT 10SM SCT049 33/16 A2995 RMK AO2 T03280163
KMNZ 231835Z AUTO 17006G15KT 10SM SCT047 32/17 A2995 RMK AO2 T03170167
KMNZ 231815Z AUTO 17012G17KT 10SM SCT045 32/17 A2997 RMK AO2 T03150171
KMNZ 231755Z AUTO 15011G16KT 10SM SCT041 31/17 A2997 RMK AO2 T03080174 10310 20213
KMNZ 231735Z AUTO 15011G16KT 10SM SCT039 31/18 A2998 RMK AO2 T03090175
KMNZ 231715Z AUTO 17013G18KT 10SM SCT037 30/18 A2998 RMK AO2 T03020177
KMNZ 231655Z AUTO 16012G17KT 10SM SCT031 29/18 A2999 RMK AO2 T02940181
KMNZ 231635Z AUTO 17010G16KT 10SM BKN031 BKN037 29/19 A2999 RMK AO2 T02920188
KMNZ 231615Z AUTO 18014G17KT 10SM SCT029 28/19 A2999 RMK AO2 T02780188
KMNZ 231555Z AUTO 19009G14KT 10SM SCT022 27/19 A2999 RMK AO2 T02740191
KMNZ 231535Z AUTO 17013KT 10SM BKN020 28/20 A3000 RMK AO2 T02790197
KMNZ 231515Z AUTO 18008KT 10SM BKN018 27/20 A2999 RMK AO2 T02650201
KMNZ 231455Z AUTO 18012G15KT 10SM CLR 26/21 A2999 RMK AO2 T02580207
KMNZ 231435Z AUTO 18011G14KT 10SM SCT010 25/22 A2999 RMK AO2 T02470215
KMNZ 231415Z AUTO 18008KT 10SM BKN008 BKN012 23/22 A2999 RMK AO2 T02320223
KMNZ 231355Z AUTO 18007KT 10SM OVC008 23/23 A2998 RMK AO2 T02280228
KMNZ 231335Z AUTO 17006KT 7SM OVC004 22/22 A2998 RMK AO2 T02230223
KMNZ 231315Z AUTO 17006KT 2 1/2SM BR OVC002 22/22 A2998 RMK AO2 T02170217
KMNZ 231255Z AUTO 18006KT 1/2SM FG OVC002 22/22 A2997 RMK AO2 T02160216
KMNZ 231235Z AUTO 17008KT 1/2SM FG OVC002 22/22 A2997 RMK AO2 T02160216
KMNZ 231215Z AUTO 17006KT 1 3/4SM BR OVC002 22/22 A2997 RMK AO2 T02160216
KMNZ 231155Z AUTO 16006KT 2 1/2SM BR BKN002 21/21 A2996 RMK AO2 T02130213 10232 20212
KMNZ 231135Z AUTO 16006KT 5SM BR SCT002 22/22 A2996 RMK AO2 T02150215
KMNZ 231115Z AUTO 15006KT 7SM CLR 22/22 A2995 RMK AO2 T02150215
KMNZ 231055Z AUTO 15005KT 7SM CLR 22/22 A2995 RMK AO2 T02150215
KMNZ 231035Z AUTO 15005KT 7SM CLR 21/21 A2995 RMK AO2 T02130213
KMNZ 231015Z AUTO 16004KT 10SM CLR 21/21 A2995 RMK AO2 T02130213
KMNZ 230955Z AUTO 18005KT 10SM CLR 22/22 A2995 RMK AO2 T02150215
KMNZ 230935Z AUTO 18005KT 10SM SCT009 22/22 A2995 RMK AO2 T02160216
KMNZ 230915Z AUTO 17005KT 10SM SCT009 22/22 A2995 RMK AO2 T02160216
KMNZ 230855Z AUTO 17005KT 10SM SCT011 22/22 A2995 RMK AO2 T02180218
KMNZ 230835Z AUTO 17005KT 10SM SCT011 22/22 A2995 RMK AO2 T02160216
KMNZ 230815Z AUTO 17004KT 10SM CLR 22/22 A2995 RMK AO2 T02180218
KMNZ 230755Z AUTO 17005KT 10SM CLR 22/22 A2995 RMK AO2 T02210218
KMNZ 230735Z AUTO 17005KT 10SM CLR 22/22 A2996 RMK AO2 T02230216
KMNZ 230715Z AUTO 16005KT 10SM CLR 23/21 A2996 RMK AO2 T02260210
KMNZ 230655Z AUTO 17006KT 10SM CLR 23/20 A2996 RMK AO2 T02280204
KMNZ 230635Z AUTO 17007KT 10SM CLR 23/20 A2995 RMK AO2 T02320204
KMNZ 230615Z AUTO 17006KT 10SM CLR 23/20 A2996 RMK AO2 T02310203
KMNZ 230535Z AUTO 17005KT 10SM CLR 24/20 A2997 RMK AO2 T02360200
KMNZ 230515Z AUTO 16006KT 10SM CLR 24/20 A2997 RMK AO2 T02400200
KMNZ 230455Z AUTO 16007KT 10SM CLR 25/20 A2997 RMK AO2 T02450200
KMNZ 230435Z AUTO 16006KT 10SM CLR 25/20 A2997 RMK AO2 T02450198
KMNZ 230415Z AUTO 16006KT 10SM CLR 25/20 A2995 RMK AO2 T02460198
KMNZ 230355Z AUTO 16006KT 10SM CLR 25/20 A2995 RMK AO2 T02500197